sensor_id;sensor_type;location;lat;lon;timestamp;P1;durP1;ratioP1;P2;durP2;ratioP2
31390;SDS011;18022;45.492;11.548;2022-07-29T00:00:05;2.28;;;2.08;;
31390;SDS011;18022;45.492;11.548;2022-07-29T00:02:32;3.97;;;2.50;;
31390;SDS011;18022;45.492;11.548;2022-07-29T00:04:58;2.40;;;1.75;;
31390;SDS011;18022;45.492;11.548;2022-07-29T00:07:24;2.28;;;1.73;;
31390;SDS011;18022;45.492;11.548;2022-07-29T00:09:50;2.85;;;1.88;;
31390;SDS011;18022;45.492;11.548;2022-07-29T00:12:16;1.65;;;1.33;;
31390;SDS011;18022;45.492;11.548;2022-07-29T00:14:41;2.10;;;1.00;;
31390;SDS011;18022;45.492;11.548;2022-07-29T00:17:07;4.10;;;1.10;;
31390;SDS011;18022;45.492;11.548;2022-07-29T00:19:33;1.23;;;1.00;;
31390;SDS011;18022;45.492;11.548;2022-07-29T00:21:59;2.40;;;1.00;;
31390;SDS011;18022;45.492;11.548;2022-07-29T00:24:25;2.45;;;1.40;;
31390;SDS011;18022;45.492;11.548;2022-07-29T00:26:51;2.38;;;1.05;;
31390;SDS011;18022;45.492;11.548;2022-07-29T00:29:17;1.45;;;0.90;;
31390;SDS011;18022;45.492;11.548;2022-07-29T00:31:43;1.83;;;0.82;;
31390;SDS011;18022;45.492;11.548;2022-07-29T00:34:08;1.20;;;1.10;;
31390;SDS011;18022;45.492;11.548;2022-07-29T00:36:54;1.60;;;1.20;;
31390;SDS011;18022;45.492;11.548;2022-07-29T00:39:20;3.13;;;1.00;;
31390;SDS011;18022;45.492;11.548;2022-07-29T00:41:46;1.60;;;1.33;;
31390;SDS011;18022;45.492;11.548;2022-07-29T00:44:11;2.65;;;1.30;;
31390;SDS011;18022;45.492;11.548;2022-07-29T00:46:38;3.80;;;1.20;;
31390;SDS011;18022;45.492;11.548;2022-07-29T00:49:04;3.80;;;1.17;;
31390;SDS011;18022;45.492;11.548;2022-07-29T00:51:32;1.75;;;1.25;;
31390;SDS011;18022;45.492;11.548;2022-07-29T00:56:25;2.35;;;1.10;;
31390;SDS011;18022;45.492;11.548;2022-07-29T00:58:51;2.13;;;1.52;;
31390;SDS011;18022;45.492;11.548;2022-07-29T01:01:18;1.45;;;1.15;;
31390;SDS011;18022;45.492;11.548;2022-07-29T01:03:44;1.70;;;1.40;;
31390;SDS011;18022;45.492;11.548;2022-07-29T01:06:09;2.40;;;1.23;;
31390;SDS011;18022;45.492;11.548;2022-07-29T01:08:35;2.45;;;1.30;;
31390;SDS011;18022;45.492;11.548;2022-07-29T01:11:01;2.85;;;1.17;;
31390;SDS011;18022;45.492;11.548;2022-07-29T01:13:27;2.92;;;1.40;;
31390;SDS011;18022;45.492;11.548;2022-07-29T01:16:01;3.30;;;1.10;;
31390;SDS011;18022;45.492;11.548;2022-07-29T01:18:33;2.60;;;1.45;;
31390;SDS011;18022;45.492;11.548;2022-07-29T01:21:41;2.75;;;1.45;;
31390;SDS011;18022;45.492;11.548;2022-07-29T01:32:07;1.30;;;1.20;;
31390;SDS011;18022;45.492;11.548;2022-07-29T01:34:40;1.80;;;1.15;;
31390;SDS011;18022;45.492;11.548;2022-07-29T01:37:15;4.10;;;1.20;;
31390;SDS011;18022;45.492;11.548;2022-07-29T01:39:43;1.63;;;1.25;;
31390;SDS011;18022;45.492;11.548;2022-07-29T01:42:23;1.52;;;1.30;;
31390;SDS011;18022;45.492;11.548;2022-07-29T01:47:25;1.80;;;1.00;;
31390;SDS011;18022;45.492;11.548;2022-07-29T01:49:56;2.53;;;1.30;;
31390;SDS011;18022;45.492;11.548;2022-07-29T01:52:31;1.30;;;1.10;;
31390;SDS011;18022;45.492;11.548;2022-07-29T01:55:02;4.97;;;1.40;;
31390;SDS011;18022;45.492;11.548;2022-07-29T01:57:34;1.92;;;1.50;;
31390;SDS011;18022;45.492;11.548;2022-07-29T02:00:03;3.45;;;1.48;;
31390;SDS011;18022;45.492;11.548;2022-07-29T02:02:30;3.00;;;1.50;;
31390;SDS011;18022;45.492;11.548;2022-07-29T02:04:58;3.85;;;1.60;;
31390;SDS011;18022;45.492;11.548;2022-07-29T02:07:27;1.95;;;1.20;;
31390;SDS011;18022;45.492;11.548;2022-07-29T02:09:55;1.50;;;1.30;;
31390;SDS011;18022;45.492;11.548;2022-07-29T02:12:23;1.70;;;1.20;;
31390;SDS011;18022;45.492;11.548;2022-07-29T02:14:52;2.25;;;1.20;;
31390;SDS011;18022;45.492;11.548;2022-07-29T02:17:30;1.40;;;1.20;;
31390;SDS011;18022;45.492;11.548;2022-07-29T02:20:01;2.50;;;1.05;;
31390;SDS011;18022;45.492;11.548;2022-07-29T02:22:29;2.55;;;1.42;;
31390;SDS011;18022;45.492;11.548;2022-07-29T02:24:58;1.40;;;1.30;;
31390;SDS011;18022;45.492;11.548;2022-07-29T02:27:25;1.70;;;1.30;;
31390;SDS011;18022;45.492;11.548;2022-07-29T02:29:53;3.10;;;1.30;;
31390;SDS011;18022;45.492;11.548;2022-07-29T02:32:21;1.50;;;1.10;;
31390;SDS011;18022;45.492;11.548;2022-07-29T02:34:49;2.83;;;1.45;;
31390;SDS011;18022;45.492;11.548;2022-07-29T02:37:17;1.35;;;1.20;;
31390;SDS011;18022;45.492;11.548;2022-07-29T02:39:43;1.90;;;1.25;;
31390;SDS011;18022;45.492;11.548;2022-07-29T02:42:11;1.30;;;1.20;;
31390;SDS011;18022;45.492;11.548;2022-07-29T02:44:39;1.80;;;1.30;;
31390;SDS011;18022;45.492;11.548;2022-07-29T02:57:47;2.45;;;1.20;;
31390;SDS011;18022;45.492;11.548;2022-07-29T03:00:19;2.38;;;1.55;;
31390;SDS011;18022;45.492;11.548;2022-07-29T03:02:50;3.90;;;1.40;;
31390;SDS011;18022;45.492;11.548;2022-07-29T03:05:18;3.88;;;2.17;;
31390;SDS011;18022;45.492;11.548;2022-07-29T03:07:46;1.90;;;1.42;;
31390;SDS011;18022;45.492;11.548;2022-07-29T03:10:16;1.80;;;1.30;;
31390;SDS011;18022;45.492;11.548;2022-07-29T03:12:42;1.63;;;1.20;;
31390;SDS011;18022;45.492;11.548;2022-07-29T03:15:08;2.97;;;1.30;;
31390;SDS011;18022;45.492;11.548;2022-07-29T03:17:35;1.45;;;1.08;;
31390;SDS011;18022;45.492;11.548;2022-07-29T03:20:03;2.03;;;1.10;;
31390;SDS011;18022;45.492;11.548;2022-07-29T03:22:29;3.17;;;1.10;;
31390;SDS011;18022;45.492;11.548;2022-07-29T03:24:55;1.80;;;1.38;;
31390;SDS011;18022;45.492;11.548;2022-07-29T03:27:21;2.00;;;1.30;;
31390;SDS011;18022;45.492;11.548;2022-07-29T03:29:47;2.17;;;1.00;;
31390;SDS011;18022;45.492;11.548;2022-07-29T03:32:13;1.10;;;1.00;;
31390;SDS011;18022;45.492;11.548;2022-07-29T03:34:38;1.40;;;1.10;;
31390;SDS011;18022;45.492;11.548;2022-07-29T03:37:04;2.08;;;0.88;;
31390;SDS011;18022;45.492;11.548;2022-07-29T03:39:33;2.38;;;0.85;;
31390;SDS011;18022;45.492;11.548;2022-07-29T03:42:04;3.00;;;1.00;;
31390;SDS011;18022;45.492;11.548;2022-07-29T03:44:32;5.03;;;2.13;;
31390;SDS011;18022;45.492;11.548;2022-07-29T03:46:58;4.30;;;0.90;;
31390;SDS011;18022;45.492;11.548;2022-07-29T03:49:26;2.42;;;1.00;;
31390;SDS011;18022;45.492;11.548;2022-07-29T03:51:54;1.90;;;1.10;;
31390;SDS011;18022;45.492;11.548;2022-07-29T03:54:20;1.42;;;0.85;;
31390;SDS011;18022;45.492;11.548;2022-07-29T03:56:46;1.63;;;0.90;;
31390;SDS011;18022;45.492;11.548;2022-07-29T03:59:15;3.33;;;0.98;;
31390;SDS011;18022;45.492;11.548;2022-07-29T04:01:42;1.35;;;1.15;;
31390;SDS011;18022;45.492;11.548;2022-07-29T04:04:08;2.80;;;1.00;;
31390;SDS011;18022;45.492;11.548;2022-07-29T04:06:38;2.45;;;0.88;;
31390;SDS011;18022;45.492;11.548;2022-07-29T04:09:08;1.33;;;0.80;;
31390;SDS011;18022;45.492;11.548;2022-07-29T04:11:35;2.77;;;1.00;;
31390;SDS011;18022;45.492;11.548;2022-07-29T04:16:28;1.15;;;0.98;;
31390;SDS011;18022;45.492;11.548;2022-07-29T04:18:54;2.22;;;0.85;;
31390;SDS011;18022;45.492;11.548;2022-07-29T04:21:19;1.27;;;1.00;;
31390;SDS011;18022;45.492;11.548;2022-07-29T04:23:45;1.95;;;0.98;;
31390;SDS011;18022;45.492;11.548;2022-07-29T04:26:14;1.98;;;1.23;;
31390;SDS011;18022;45.492;11.548;2022-07-29T04:28:44;1.70;;;0.90;;
31390;SDS011;18022;45.492;11.548;2022-07-29T04:31:10;0.98;;;0.80;;
31390;SDS011;18022;45.492;11.548;2022-07-29T04:33:36;3.67;;;1.08;;
31390;SDS011;18022;45.492;11.548;2022-07-29T04:36:02;1.25;;;0.85;;
31390;SDS011;18022;45.492;11.548;2022-07-29T04:38:28;1.38;;;1.10;;
31390;SDS011;18022;45.492;11.548;2022-07-29T04:40:54;1.42;;;1.10;;
31390;SDS011;18022;45.492;11.548;2022-07-29T04:43:19;1.50;;;1.00;;
31390;SDS011;18022;45.492;11.548;2022-07-29T04:45:45;2.65;;;0.70;;
31390;SDS011;18022;45.492;11.548;2022-07-29T04:48:11;2.42;;;1.00;;
31390;SDS011;18022;45.492;11.548;2022-07-29T04:50:39;1.67;;;1.00;;
31390;SDS011;18022;45.492;11.548;2022-07-29T04:53:06;1.80;;;1.13;;
31390;SDS011;18022;45.492;11.548;2022-07-29T04:55:32;1.50;;;1.20;;
31390;SDS011;18022;45.492;11.548;2022-07-29T04:57:58;0.95;;;0.90;;
31390;SDS011;18022;45.492;11.548;2022-07-29T05:00:24;2.97;;;0.80;;
31390;SDS011;18022;45.492;11.548;2022-07-29T05:02:49;1.58;;;0.80;;
31390;SDS011;18022;45.492;11.548;2022-07-29T05:05:15;1.60;;;1.00;;
31390;SDS011;18022;45.492;11.548;2022-07-29T05:07:41;1.30;;;0.80;;
31390;SDS011;18022;45.492;11.548;2022-07-29T05:10:07;4.55;;;0.98;;
31390;SDS011;18022;45.492;11.548;2022-07-29T05:12:33;1.77;;;1.00;;
31390;SDS011;18022;45.492;11.548;2022-07-29T05:14:59;1.58;;;0.93;;
31390;SDS011;18022;45.492;11.548;2022-07-29T05:17:25;1.75;;;0.90;;
31390;SDS011;18022;45.492;11.548;2022-07-29T05:19:50;3.10;;;0.90;;
31390;SDS011;18022;45.492;11.548;2022-07-29T05:22:19;4.45;;;1.00;;
31390;SDS011;18022;45.492;11.548;2022-07-29T05:24:45;1.17;;;0.80;;
31390;SDS011;18022;45.492;11.548;2022-07-29T05:27:14;5.25;;;0.93;;
31390;SDS011;18022;45.492;11.548;2022-07-29T05:29:40;1.30;;;0.75;;
31390;SDS011;18022;45.492;11.548;2022-07-29T05:32:06;1.00;;;0.82;;
31390;SDS011;18022;45.492;11.548;2022-07-29T05:34:32;2.28;;;0.90;;
31390;SDS011;18022;45.492;11.548;2022-07-29T05:36:57;2.58;;;0.70;;
31390;SDS011;18022;45.492;11.548;2022-07-29T05:39:23;1.15;;;0.90;;
31390;SDS011;18022;45.492;11.548;2022-07-29T05:41:49;1.50;;;0.82;;
31390;SDS011;18022;45.492;11.548;2022-07-29T05:44:15;3.65;;;1.33;;
31390;SDS011;18022;45.492;11.548;2022-07-29T05:46:40;3.20;;;0.90;;
31390;SDS011;18022;45.492;11.548;2022-07-29T05:49:06;1.08;;;0.73;;
31390;SDS011;18022;45.492;11.548;2022-07-29T05:51:35;0.95;;;0.88;;
31390;SDS011;18022;45.492;11.548;2022-07-29T05:54:00;0.90;;;0.90;;
31390;SDS011;18022;45.492;11.548;2022-07-29T05:56:27;0.80;;;0.80;;
31390;SDS011;18022;45.492;11.548;2022-07-29T05:58:53;1.10;;;0.90;;
31390;SDS011;18022;45.492;11.548;2022-07-29T06:01:19;1.90;;;0.80;;
31390;SDS011;18022;45.492;11.548;2022-07-29T06:03:45;1.73;;;1.63;;
31390;SDS011;18022;45.492;11.548;2022-07-29T06:06:10;1.00;;;0.80;;
31390;SDS011;18022;45.492;11.548;2022-07-29T06:08:37;2.58;;;0.77;;
31390;SDS011;18022;45.492;11.548;2022-07-29T06:11:03;1.17;;;1.00;;
31390;SDS011;18022;45.492;11.548;2022-07-29T06:13:29;4.40;;;0.98;;
31390;SDS011;18022;45.492;11.548;2022-07-29T06:15:56;0.90;;;0.90;;
31390;SDS011;18022;45.492;11.548;2022-07-29T06:18:22;1.05;;;0.95;;
31390;SDS011;18022;45.492;11.548;2022-07-29T06:20:51;1.10;;;0.93;;
31390;SDS011;18022;45.492;11.548;2022-07-29T06:23:18;1.10;;;1.00;;
31390;SDS011;18022;45.492;11.548;2022-07-29T06:25:44;1.58;;;1.00;;
31390;SDS011;18022;45.492;11.548;2022-07-29T06:28:10;2.75;;;1.17;;
31390;SDS011;18022;45.492;11.548;2022-07-29T06:30:36;1.83;;;1.17;;
31390;SDS011;18022;45.492;11.548;2022-07-29T06:33:03;2.13;;;0.95;;
31390;SDS011;18022;45.492;11.548;2022-07-29T06:35:29;2.42;;;1.67;;
31390;SDS011;18022;45.492;11.548;2022-07-29T06:37:55;1.27;;;1.00;;
31390;SDS011;18022;45.492;11.548;2022-07-29T06:40:21;1.00;;;0.90;;
31390;SDS011;18022;45.492;11.548;2022-07-29T06:43:05;1.20;;;1.10;;
31390;SDS011;18022;45.492;11.548;2022-07-29T06:45:33;2.25;;;1.00;;
31390;SDS011;18022;45.492;11.548;2022-07-29T06:47:59;1.10;;;1.00;;
31390;SDS011;18022;45.492;11.548;2022-07-29T06:50:24;1.30;;;1.00;;
31390;SDS011;18022;45.492;11.548;2022-07-29T06:52:53;0.93;;;0.90;;
31390;SDS011;18022;45.492;11.548;2022-07-29T06:55:19;1.73;;;1.08;;
31390;SDS011;18022;45.492;11.548;2022-07-29T06:57:45;1.88;;;1.20;;
31390;SDS011;18022;45.492;11.548;2022-07-29T07:00:11;1.45;;;1.30;;
31390;SDS011;18022;45.492;11.548;2022-07-29T07:02:38;2.08;;;1.00;;
31390;SDS011;18022;45.492;11.548;2022-07-29T07:05:04;1.63;;;1.10;;
31390;SDS011;18022;45.492;11.548;2022-07-29T07:07:31;1.10;;;1.00;;
31390;SDS011;18022;45.492;11.548;2022-07-29T07:09:57;1.70;;;1.40;;
31390;SDS011;18022;45.492;11.548;2022-07-29T07:12:23;9.10;;;1.25;;
31390;SDS011;18022;45.492;11.548;2022-07-29T07:14:48;1.60;;;1.20;;
31390;SDS011;18022;45.492;11.548;2022-07-29T07:17:14;1.25;;;1.15;;
31390;SDS011;18022;45.492;11.548;2022-07-29T07:19:40;1.48;;;1.20;;
31390;SDS011;18022;45.492;11.548;2022-07-29T07:22:05;1.83;;;1.50;;
31390;SDS011;18022;45.492;11.548;2022-07-29T07:24:31;1.70;;;1.20;;
31390;SDS011;18022;45.492;11.548;2022-07-29T07:26:57;1.30;;;1.20;;
31390;SDS011;18022;45.492;11.548;2022-07-29T07:29:22;1.40;;;1.10;;
31390;SDS011;18022;45.492;11.548;2022-07-29T07:31:48;1.63;;;1.45;;
31390;SDS011;18022;45.492;11.548;2022-07-29T07:34:14;1.70;;;1.38;;
31390;SDS011;18022;45.492;11.548;2022-07-29T07:36:40;1.20;;;1.10;;
31390;SDS011;18022;45.492;11.548;2022-07-29T07:39:05;1.50;;;1.40;;
31390;SDS011;18022;45.492;11.548;2022-07-29T07:41:31;3.25;;;1.50;;
31390;SDS011;18022;45.492;11.548;2022-07-29T07:43:57;2.65;;;1.50;;
31390;SDS011;18022;45.492;11.548;2022-07-29T07:46:24;2.65;;;1.17;;
31390;SDS011;18022;45.492;11.548;2022-07-29T07:48:50;1.50;;;1.40;;
31390;SDS011;18022;45.492;11.548;2022-07-29T07:51:17;3.50;;;1.25;;
31390;SDS011;18022;45.492;11.548;2022-07-29T07:53:43;3.70;;;1.40;;
31390;SDS011;18022;45.492;11.548;2022-07-29T07:56:09;2.55;;;1.42;;
31390;SDS011;18022;45.492;11.548;2022-07-29T07:58:35;2.47;;;1.40;;
31390;SDS011;18022;45.492;11.548;2022-07-29T08:01:01;2.70;;;1.45;;
31390;SDS011;18022;45.492;11.548;2022-07-29T08:03:27;2.20;;;1.35;;
31390;SDS011;18022;45.492;11.548;2022-07-29T08:05:53;3.10;;;1.33;;
31390;SDS011;18022;45.492;11.548;2022-07-29T08:08:19;3.45;;;1.55;;
31390;SDS011;18022;45.492;11.548;2022-07-29T08:10:45;3.35;;;1.65;;
31390;SDS011;18022;45.492;11.548;2022-07-29T08:13:17;2.53;;;1.30;;
31390;SDS011;18022;45.492;11.548;2022-07-29T08:15:44;1.63;;;1.52;;
31390;SDS011;18022;45.492;11.548;2022-07-29T08:18:10;1.50;;;1.40;;
31390;SDS011;18022;45.492;11.548;2022-07-29T08:20:37;1.58;;;1.23;;
31390;SDS011;18022;45.492;11.548;2022-07-29T08:23:04;1.90;;;1.53;;
31390;SDS011;18022;45.492;11.548;2022-07-29T08:25:33;1.73;;;1.50;;
31390;SDS011;18022;45.492;11.548;2022-07-29T08:28:03;1.55;;;1.40;;
31390;SDS011;18022;45.492;11.548;2022-07-29T08:30:29;1.30;;;1.20;;
31390;SDS011;18022;45.492;11.548;2022-07-29T08:32:56;2.35;;;1.40;;
31390;SDS011;18022;45.492;11.548;2022-07-29T08:35:22;1.30;;;1.20;;
31390;SDS011;18022;45.492;11.548;2022-07-29T08:37:49;5.13;;;1.30;;
31390;SDS011;18022;45.492;11.548;2022-07-29T08:40:15;1.70;;;1.50;;
31390;SDS011;18022;45.492;11.548;2022-07-29T08:42:41;1.38;;;1.25;;
31390;SDS011;18022;45.492;11.548;2022-07-29T08:45:07;2.45;;;1.80;;
31390;SDS011;18022;45.492;11.548;2022-07-29T08:47:33;1.88;;;1.42;;
31390;SDS011;18022;45.492;11.548;2022-07-29T08:50:03;1.92;;;1.45;;
31390;SDS011;18022;45.492;11.548;2022-07-29T08:52:29;2.58;;;1.25;;
31390;SDS011;18022;45.492;11.548;2022-07-29T08:55:00;2.58;;;1.60;;
31390;SDS011;18022;45.492;11.548;2022-07-29T08:57:28;2.80;;;1.52;;
31390;SDS011;18022;45.492;11.548;2022-07-29T08:59:54;2.17;;;1.50;;
31390;SDS011;18022;45.492;11.548;2022-07-29T09:02:22;1.92;;;1.50;;
31390;SDS011;18022;45.492;11.548;2022-07-29T09:04:51;1.60;;;1.50;;
31390;SDS011;18022;45.492;11.548;2022-07-29T09:07:17;2.67;;;1.50;;
31390;SDS011;18022;45.492;11.548;2022-07-29T09:09:43;1.63;;;1.40;;
31390;SDS011;18022;45.492;11.548;2022-07-29T09:12:10;2.35;;;1.58;;
31390;SDS011;18022;45.492;11.548;2022-07-29T09:14:39;2.33;;;1.60;;
31390;SDS011;18022;45.492;11.548;2022-07-29T09:17:05;2.10;;;1.30;;
31390;SDS011;18022;45.492;11.548;2022-07-29T09:19:35;4.63;;;1.58;;
31390;SDS011;18022;45.492;11.548;2022-07-29T09:22:03;1.38;;;1.27;;
31390;SDS011;18022;45.492;11.548;2022-07-29T09:24:43;1.70;;;1.30;;
31390;SDS011;18022;45.492;11.548;2022-07-29T09:27:11;2.22;;;1.50;;
31390;SDS011;18022;45.492;11.548;2022-07-29T09:29:47;4.15;;;1.40;;
31390;SDS011;18022;45.492;11.548;2022-07-29T09:32:56;2.38;;;1.52;;
31390;SDS011;18022;45.492;11.548;2022-07-29T09:35:26;1.52;;;1.20;;
31390;SDS011;18022;45.492;11.548;2022-07-29T09:37:53;1.42;;;1.30;;
31390;SDS011;18022;45.492;11.548;2022-07-29T09:40:26;1.70;;;1.60;;
31390;SDS011;18022;45.492;11.548;2022-07-29T09:42:52;1.55;;;1.45;;
31390;SDS011;18022;45.492;11.548;2022-07-29T09:45:26;2.10;;;1.60;;
31390;SDS011;18022;45.492;11.548;2022-07-29T09:47:54;2.08;;;1.50;;
31390;SDS011;18022;45.492;11.548;2022-07-29T09:50:22;2.30;;;1.70;;
31390;SDS011;18022;45.492;11.548;2022-07-29T09:52:51;3.78;;;1.95;;
31390;SDS011;18022;45.492;11.548;2022-07-29T09:55:18;1.85;;;1.70;;
31390;SDS011;18022;45.492;11.548;2022-07-29T09:57:45;6.00;;;1.70;;
31390;SDS011;18022;45.492;11.548;2022-07-29T10:00:15;3.88;;;1.65;;
31390;SDS011;18022;45.492;11.548;2022-07-29T10:02:44;3.20;;;1.30;;
31390;SDS011;18022;45.492;11.548;2022-07-29T10:07:52;2.08;;;1.95;;
31390;SDS011;18022;45.492;11.548;2022-07-29T10:10:22;3.00;;;1.95;;
31390;SDS011;18022;45.492;11.548;2022-07-29T10:12:54;4.75;;;1.70;;
31390;SDS011;18022;45.492;11.548;2022-07-29T10:15:26;2.42;;;1.88;;
31390;SDS011;18022;45.492;11.548;2022-07-29T10:17:54;2.30;;;1.83;;
31390;SDS011;18022;45.492;11.548;2022-07-29T10:20:21;2.28;;;1.80;;
31390;SDS011;18022;45.492;11.548;2022-07-29T10:22:48;2.03;;;1.90;;
31390;SDS011;18022;45.492;11.548;2022-07-29T10:25:14;3.50;;;1.70;;
31390;SDS011;18022;45.492;11.548;2022-07-29T10:27:41;1.90;;;1.80;;
31390;SDS011;18022;45.492;11.548;2022-07-29T10:30:12;2.95;;;2.00;;
31390;SDS011;18022;45.492;11.548;2022-07-29T10:41:05;2.42;;;2.22;;
31390;SDS011;18022;45.492;11.548;2022-07-29T10:43:54;3.08;;;2.00;;
31390;SDS011;18022;45.492;11.548;2022-07-29T10:46:37;3.33;;;2.05;;
31390;SDS011;18022;45.492;11.548;2022-07-29T10:51:53;2.95;;;2.15;;
31390;SDS011;18022;45.492;11.548;2022-07-29T10:54:36;5.38;;;2.67;;
31390;SDS011;18022;45.492;11.548;2022-07-29T10:57:27;2.53;;;2.30;;
31390;SDS011;18022;45.492;11.548;2022-07-29T11:05:02;7.70;;;2.60;;
31390;SDS011;18022;45.492;11.548;2022-07-29T11:07:29;3.72;;;2.30;;
31390;SDS011;18022;45.492;11.548;2022-07-29T11:15:16;3.95;;;2.25;;
31390;SDS011;18022;45.492;11.548;2022-07-29T11:20:35;3.30;;;2.20;;
31390;SDS011;18022;45.492;11.548;2022-07-29T11:23:01;2.63;;;2.10;;
31390;SDS011;18022;45.492;11.548;2022-07-29T11:34:19;5.75;;;2.40;;
31390;SDS011;18022;45.492;11.548;2022-07-29T11:40:19;5.15;;;2.67;;
31390;SDS011;18022;45.492;11.548;2022-07-29T11:47:42;2.85;;;2.50;;
31390;SDS011;18022;45.492;11.548;2022-07-29T11:50:13;3.50;;;2.50;;
31390;SDS011;18022;45.492;11.548;2022-07-29T11:52:42;2.83;;;2.55;;
31390;SDS011;18022;45.492;11.548;2022-07-29T11:55:13;3.20;;;2.90;;
31390;SDS011;18022;45.492;11.548;2022-07-29T12:00:16;4.97;;;2.75;;
31390;SDS011;18022;45.492;11.548;2022-07-29T12:02:54;3.60;;;2.72;;
31390;SDS011;18022;45.492;11.548;2022-07-29T12:05:20;4.37;;;2.73;;
31390;SDS011;18022;45.492;11.548;2022-07-29T12:07:46;3.53;;;2.50;;
31390;SDS011;18022;45.492;11.548;2022-07-29T12:12:39;3.72;;;3.00;;
31390;SDS011;18022;45.492;11.548;2022-07-29T12:15:17;3.50;;;3.20;;
31390;SDS011;18022;45.492;11.548;2022-07-29T12:17:45;5.25;;;2.70;;
31390;SDS011;18022;45.492;11.548;2022-07-29T12:20:13;5.25;;;2.90;;
31390;SDS011;18022;45.492;11.548;2022-07-29T12:22:46;5.63;;;3.53;;
31390;SDS011;18022;45.492;11.548;2022-07-29T12:25:14;4.15;;;3.08;;
31390;SDS011;18022;45.492;11.548;2022-07-29T12:27:42;4.05;;;2.85;;
31390;SDS011;18022;45.492;11.548;2022-07-29T12:30:14;5.40;;;2.78;;
31390;SDS011;18022;45.492;11.548;2022-07-29T12:32:42;2.85;;;2.65;;
31390;SDS011;18022;45.492;11.548;2022-07-29T12:35:13;4.53;;;2.85;;
31390;SDS011;18022;45.492;11.548;2022-07-29T12:37:41;4.53;;;3.53;;
31390;SDS011;18022;45.492;11.548;2022-07-29T12:40:09;3.88;;;3.17;;
31390;SDS011;18022;45.492;11.548;2022-07-29T12:42:38;5.45;;;3.03;;
31390;SDS011;18022;45.492;11.548;2022-07-29T12:45:04;3.38;;;3.08;;
31390;SDS011;18022;45.492;11.548;2022-07-29T12:47:31;3.05;;;2.78;;
31390;SDS011;18022;45.492;11.548;2022-07-29T12:50:07;3.10;;;2.85;;
31390;SDS011;18022;45.492;11.548;2022-07-29T12:52:33;3.30;;;2.80;;
31390;SDS011;18022;45.492;11.548;2022-07-29T12:55:00;2.80;;;2.60;;
31390;SDS011;18022;45.492;11.548;2022-07-29T12:57:26;8.33;;;2.90;;
31390;SDS011;18022;45.492;11.548;2022-07-29T13:00:06;3.15;;;2.83;;
31390;SDS011;18022;45.492;11.548;2022-07-29T13:02:35;5.75;;;2.70;;
31390;SDS011;18022;45.492;11.548;2022-07-29T13:05:05;4.72;;;2.65;;
31390;SDS011;18022;45.492;11.548;2022-07-29T13:07:32;6.47;;;3.00;;
31390;SDS011;18022;45.492;11.548;2022-07-29T13:15:26;4.03;;;2.63;;
31390;SDS011;18022;45.492;11.548;2022-07-29T13:17:52;2.88;;;2.67;;
31390;SDS011;18022;45.492;11.548;2022-07-29T13:20:18;3.05;;;2.72;;
31390;SDS011;18022;45.492;11.548;2022-07-29T13:22:46;3.42;;;2.72;;
31390;SDS011;18022;45.492;11.548;2022-07-29T13:25:13;4.88;;;2.90;;
31390;SDS011;18022;45.492;11.548;2022-07-29T13:27:38;4.28;;;2.85;;
31390;SDS011;18022;45.492;11.548;2022-07-29T13:30:08;3.83;;;2.85;;
31390;SDS011;18022;45.492;11.548;2022-07-29T13:32:35;4.30;;;2.50;;
31390;SDS011;18022;45.492;11.548;2022-07-29T13:35:04;4.05;;;2.92;;
31390;SDS011;18022;45.492;11.548;2022-07-29T13:37:31;14.20;;;3.10;;
31390;SDS011;18022;45.492;11.548;2022-07-29T13:39:59;4.25;;;2.85;;
31390;SDS011;18022;45.492;11.548;2022-07-29T13:42:27;3.22;;;2.90;;
31390;SDS011;18022;45.492;11.548;2022-07-29T13:44:53;4.20;;;2.58;;
31390;SDS011;18022;45.492;11.548;2022-07-29T13:47:19;6.82;;;3.13;;
31390;SDS011;18022;45.492;11.548;2022-07-29T13:49:45;2.80;;;2.60;;
31390;SDS011;18022;45.492;11.548;2022-07-29T13:52:11;4.05;;;2.83;;
31390;SDS011;18022;45.492;11.548;2022-07-29T13:54:37;2.67;;;2.47;;
31390;SDS011;18022;45.492;11.548;2022-07-29T13:57:05;3.65;;;2.90;;
31390;SDS011;18022;45.492;11.548;2022-07-29T13:59:31;6.35;;;2.70;;
31390;SDS011;18022;45.492;11.548;2022-07-29T14:01:57;5.88;;;3.00;;
31390;SDS011;18022;45.492;11.548;2022-07-29T14:04:23;3.45;;;2.22;;
31390;SDS011;18022;45.492;11.548;2022-07-29T14:06:49;6.40;;;2.70;;
31390;SDS011;18022;45.492;11.548;2022-07-29T14:09:15;3.17;;;2.53;;
31390;SDS011;18022;45.492;11.548;2022-07-29T14:11:40;3.33;;;2.67;;
31390;SDS011;18022;45.492;11.548;2022-07-29T14:14:06;2.50;;;2.28;;
31390;SDS011;18022;45.492;11.548;2022-07-29T14:16:32;6.45;;;2.88;;
31390;SDS011;18022;45.492;11.548;2022-07-29T14:18:58;2.85;;;2.65;;
31390;SDS011;18022;45.492;11.548;2022-07-29T14:21:24;2.90;;;2.50;;
31390;SDS011;18022;45.492;11.548;2022-07-29T14:23:50;4.07;;;2.70;;
31390;SDS011;18022;45.492;11.548;2022-07-29T14:26:17;6.63;;;2.80;;
31390;SDS011;18022;45.492;11.548;2022-07-29T14:28:43;2.47;;;2.28;;
31390;SDS011;18022;45.492;11.548;2022-07-29T14:31:09;5.40;;;2.70;;
31390;SDS011;18022;45.492;11.548;2022-07-29T14:33:35;4.15;;;2.33;;
31390;SDS011;18022;45.492;11.548;2022-07-29T14:36:00;2.40;;;2.20;;
31390;SDS011;18022;45.492;11.548;2022-07-29T14:38:26;3.20;;;2.90;;
31390;SDS011;18022;45.492;11.548;2022-07-29T14:40:52;3.53;;;2.60;;
31390;SDS011;18022;45.492;11.548;2022-07-29T14:43:18;3.85;;;2.22;;
31390;SDS011;18022;45.492;11.548;2022-07-29T14:45:43;3.67;;;2.30;;
31390;SDS011;18022;45.492;11.548;2022-07-29T14:48:09;4.18;;;2.80;;
31390;SDS011;18022;45.492;11.548;2022-07-29T14:50:36;3.42;;;2.60;;
31390;SDS011;18022;45.492;11.548;2022-07-29T14:53:02;3.92;;;2.65;;
31390;SDS011;18022;45.492;11.548;2022-07-29T14:55:28;3.28;;;2.42;;
31390;SDS011;18022;45.492;11.548;2022-07-29T14:57:54;4.30;;;2.75;;
31390;SDS011;18022;45.492;11.548;2022-07-29T15:00:20;3.40;;;2.50;;
31390;SDS011;18022;45.492;11.548;2022-07-29T15:02:47;2.55;;;2.35;;
31390;SDS011;18022;45.492;11.548;2022-07-29T15:05:14;5.00;;;2.90;;
31390;SDS011;18022;45.492;11.548;2022-07-29T15:07:39;4.28;;;2.17;;
31390;SDS011;18022;45.492;11.548;2022-07-29T15:10:05;2.60;;;2.40;;
31390;SDS011;18022;45.492;11.548;2022-07-29T15:12:31;2.70;;;2.50;;
31390;SDS011;18022;45.492;11.548;2022-07-29T15:14:58;3.63;;;2.67;;
31390;SDS011;18022;45.492;11.548;2022-07-29T15:17:24;2.90;;;2.50;;
31390;SDS011;18022;45.492;11.548;2022-07-29T15:19:50;5.05;;;2.45;;
31390;SDS011;18022;45.492;11.548;2022-07-29T15:22:16;2.40;;;2.20;;
31390;SDS011;18022;45.492;11.548;2022-07-29T15:24:42;4.60;;;2.53;;
31390;SDS011;18022;45.492;11.548;2022-07-29T15:27:07;2.72;;;2.53;;
31390;SDS011;18022;45.492;11.548;2022-07-29T15:29:39;4.28;;;2.75;;
31390;SDS011;18022;45.492;11.548;2022-07-29T15:32:08;3.65;;;2.33;;
31390;SDS011;18022;45.492;11.548;2022-07-29T15:34:35;2.65;;;2.45;;
31390;SDS011;18022;45.492;11.548;2022-07-29T15:37:01;3.75;;;2.63;;
31390;SDS011;18022;45.492;11.548;2022-07-29T15:39:26;3.72;;;2.38;;
31390;SDS011;18022;45.492;11.548;2022-07-29T15:41:52;2.63;;;2.40;;
31390;SDS011;18022;45.492;11.548;2022-07-29T15:44:18;3.30;;;2.13;;
31390;SDS011;18022;45.492;11.548;2022-07-29T15:46:44;5.93;;;2.60;;
31390;SDS011;18022;45.492;11.548;2022-07-29T15:49:28;3.47;;;2.20;;
31390;SDS011;18022;45.492;11.548;2022-07-29T15:52:01;3.70;;;2.42;;
31390;SDS011;18022;45.492;11.548;2022-07-29T15:54:30;3.22;;;2.55;;
31390;SDS011;18022;45.492;11.548;2022-07-29T15:56:57;2.55;;;2.30;;